sensor_id;sensor_type;location;lat;lon;timestamp;pressure;altitude;pressure_sealevel;temperature;humidity
40850;BME280;26571;41.610;25.380;2023-01-28T00:00:04;97484.03;;;7.17;nan
40850;BME280;26571;41.610;25.380;2023-01-28T00:02:31;97505.13;;;7.23;nan
40850;BME280;26571;41.610;25.380;2023-01-28T00:04:57;97488.84;;;6.81;nan
40850;BME280;26571;41.610;25.380;2023-01-28T00:07:22;97512.38;;;6.81;nan
40850;BME280;26571;41.610;25.380;2023-01-28T00:09:48;97511.25;;;6.59;nan
40850;BME280;26571;41.610;25.380;2023-01-28T00:12:13;97498.69;;;6.38;nan
40850;BME280;26571;41.610;25.380;2023-01-28T00:14:39;97492.25;;;6.16;nan
40850;BME280;26571;41.610;25.380;2023-01-28T00:17:05;97478.38;;;6.15;nan
40850;BME280;26571;41.610;25.380;2023-01-28T00:19:30;97483.66;;;6.32;nan
40850;BME280;26571;41.610;25.380;2023-01-28T00:21:56;97491.47;;;6.40;nan
40850;BME280;26571;41.610;25.380;2023-01-28T00:24:21;97494.75;;;6.58;nan
40850;BME280;26571;41.610;25.380;2023-01-28T00:26:47;97505.88;;;6.77;nan
40850;BME280;26571;41.610;25.380;2023-01-28T00:29:12;97509.44;;;6.76;nan
40850;BME280;26571;41.610;25.380;2023-01-28T00:31:38;97509.13;;;6.70;nan
40850;BME280;26571;41.610;25.380;2023-01-28T00:34:05;97512.41;;;6.72;nan
40850;BME280;26571;41.610;25.380;2023-01-28T00:36:31;97508.16;;;6.63;nan
40850;BME280;26571;41.610;25.380;2023-01-28T00:38:58;97511.56;;;6.64;nan
40850;BME280;26571;41.610;25.380;2023-01-28T00:41:26;97523.00;;;6.79;nan
40850;BME280;26571;41.610;25.380;2023-01-28T00:43:52;97523.16;;;6.86;nan
40850;BME280;26571;41.610;25.380;2023-01-28T00:46:19;97530.34;;;7.00;nan
40850;BME280;26571;41.610;25.380;2023-01-28T00:48:45;97489.66;;;6.81;nan
40850;BME280;26571;41.610;25.380;2023-01-28T00:51:12;97536.56;;;6.91;nan
40850;BME280;26571;41.610;25.380;2023-01-28T00:53:39;97535.59;;;6.84;nan
40850;BME280;26571;41.610;25.380;2023-01-28T00:56:06;97539.53;;;6.80;nan
40850;BME280;26571;41.610;25.380;2023-01-28T00:58:32;97505.69;;;6.45;nan
40850;BME280;26571;41.610;25.380;2023-01-28T01:01:15;97497.66;;;6.31;nan
40850;BME280;26571;41.610;25.380;2023-01-28T01:03:40;97548.66;;;6.27;nan
40850;BME280;26571;41.610;25.380;2023-01-28T01:06:07;97552.69;;;6.21;nan
40850;BME280;26571;41.610;25.380;2023-01-28T01:08:33;97541.78;;;6.34;nan
40850;BME280;26571;41.610;25.380;2023-01-28T01:11:05;97513.59;;;5.87;nan
40850;BME280;26571;41.610;25.380;2023-01-28T01:13:31;97554.97;;;6.08;nan
40850;BME280;26571;41.610;25.380;2023-01-28T01:16:13;97549.09;;;6.14;nan
40850;BME280;26571;41.610;25.380;2023-01-28T01:18:41;97521.34;;;5.70;nan
40850;BME280;26571;41.610;25.380;2023-01-28T01:21:12;97554.78;;;5.93;nan
40850;BME280;26571;41.610;25.380;2023-01-28T01:23:38;97559.00;;;5.94;nan
40850;BME280;26571;41.610;25.380;2023-01-28T01:26:04;97562.59;;;5.93;nan
40850;BME280;26571;41.610;25.380;2023-01-28T01:28:30;97559.28;;;5.91;nan
40850;BME280;26571;41.610;25.380;2023-01-28T01:31:04;97566.25;;;6.08;nan
40850;BME280;26571;41.610;25.380;2023-01-28T01:33:30;97572.97;;;6.19;nan
40850;BME280;26571;41.610;25.380;2023-01-28T01:35:56;97565.66;;;6.39;nan
40850;BME280;26571;41.610;25.380;2023-01-28T01:38:22;97530.34;;;6.18;nan
40850;BME280;26571;41.610;25.380;2023-01-28T01:40:47;97560.25;;;6.32;nan
40850;BME280;26571;41.610;25.380;2023-01-28T01:43:18;97566.16;;;6.51;nan
40850;BME280;26571;41.610;25.380;2023-01-28T01:45:47;97569.91;;;6.40;nan
40850;BME280;26571;41.610;25.380;2023-01-28T01:48:22;97570.81;;;6.14;nan
40850;BME280;26571;41.610;25.380;2023-01-28T01:50:56;97579.28;;;6.00;nan
40850;BME280;26571;41.610;25.380;2023-01-28T01:53:24;97578.66;;;6.14;nan
40850;BME280;26571;41.610;25.380;2023-01-28T01:55:53;97588.78;;;6.09;nan
40850;BME280;26571;41.610;25.380;2023-01-28T01:58:25;97586.75;;;5.95;nan
40850;BME280;26571;41.610;25.380;2023-01-28T02:00:52;97571.47;;;5.74;nan
40850;BME280;26571;41.610;25.380;2023-01-28T02:03:22;97600.38;;;5.81;nan
40850;BME280;26571;41.610;25.380;2023-01-28T02:05:50;97594.97;;;5.74;nan
40850;BME280;26571;41.610;25.380;2023-01-28T02:08:15;97596.50;;;5.85;nan
40850;BME280;26571;41.610;25.380;2023-01-28T02:10:53;97599.09;;;5.85;nan
40850;BME280;26571;41.610;25.380;2023-01-28T02:13:22;97598.28;;;5.84;nan
40850;BME280;26571;41.610;25.380;2023-01-28T02:15:51;97595.59;;;5.94;nan
40850;BME280;26571;41.610;25.380;2023-01-28T02:18:18;97580.28;;;6.07;nan
40850;BME280;26571;41.610;25.380;2023-01-28T02:23:47;97598.78;;;6.22;nan
40850;BME280;26571;41.610;25.380;2023-01-28T02:29:17;97601.50;;;6.04;nan
40850;BME280;26571;41.610;25.380;2023-01-28T02:34:24;97599.69;;;5.70;nan
40850;BME280;26571;41.610;25.380;2023-01-28T02:37:22;97592.31;;;5.92;nan
40850;BME280;26571;41.610;25.380;2023-01-28T02:40:07;97555.84;;;5.82;nan
40850;BME280;26571;41.610;25.380;2023-01-28T02:42:36;97587.78;;;6.02;nan
40850;BME280;26571;41.610;25.380;2023-01-28T02:45:14;97593.25;;;5.91;nan
40850;BME280;26571;41.610;25.380;2023-01-28T02:47:41;97587.50;;;5.79;nan
40850;BME280;26571;41.610;25.380;2023-01-28T02:50:22;97598.34;;;5.58;nan
40850;BME280;26571;41.610;25.380;2023-01-28T02:58:48;97579.41;;;4.86;nan
40850;BME280;26571;41.610;25.380;2023-01-28T03:01:35;97594.25;;;5.04;nan
40850;BME280;26571;41.610;25.380;2023-01-28T03:06:36;97602.31;;;4.75;nan
40850;BME280;26571;41.610;25.380;2023-01-28T03:09:06;97600.69;;;4.74;nan
40850;BME280;26571;41.610;25.380;2023-01-28T03:11:56;97607.00;;;4.89;nan
40850;BME280;26571;41.610;25.380;2023-01-28T03:14:45;97606.19;;;4.71;nan
40850;BME280;26571;41.610;25.380;2023-01-28T03:23:38;97608.06;;;4.43;nan
40850;BME280;26571;41.610;25.380;2023-01-28T03:26:26;97606.03;;;4.54;nan
40850;BME280;26571;41.610;25.380;2023-01-28T03:29:12;97603.44;;;4.54;nan
40850;BME280;26571;41.610;25.380;2023-01-28T03:31:58;97614.97;;;4.34;nan
40850;BME280;26571;41.610;25.380;2023-01-28T03:34:44;97612.03;;;4.19;nan
40850;BME280;26571;41.610;25.380;2023-01-28T03:37:30;97613.63;;;4.30;nan
40850;BME280;26571;41.610;25.380;2023-01-28T03:40:01;97607.59;;;4.47;nan
40850;BME280;26571;41.610;25.380;2023-01-28T03:42:26;97619.16;;;4.62;nan
40850;BME280;26571;41.610;25.380;2023-01-28T03:44:51;97620.44;;;4.58;nan
40850;BME280;26571;41.610;25.380;2023-01-28T03:47:28;97629.88;;;4.59;nan
40850;BME280;26571;41.610;25.380;2023-01-28T03:49:55;97626.00;;;4.63;nan
40850;BME280;26571;41.610;25.380;2023-01-28T03:52:25;97631.72;;;4.67;nan
40850;BME280;26571;41.610;25.380;2023-01-28T03:54:51;97630.38;;;4.81;nan
40850;BME280;26571;41.610;25.380;2023-01-28T03:57:19;97635.56;;;4.73;nan
40850;BME280;26571;41.610;25.380;2023-01-28T03:59:46;97644.09;;;4.65;nan
40850;BME280;26571;41.610;25.380;2023-01-28T04:02:14;97635.03;;;4.69;nan
40850;BME280;26571;41.610;25.380;2023-01-28T04:04:40;97652.09;;;4.63;nan
40850;BME280;26571;41.610;25.380;2023-01-28T04:07:08;97656.84;;;4.68;nan
40850;BME280;26571;41.610;25.380;2023-01-28T04:09:35;97656.31;;;4.64;nan
40850;BME280;26571;41.610;25.380;2023-01-28T04:12:02;97659.91;;;4.36;nan
40850;BME280;26571;41.610;25.380;2023-01-28T04:14:28;97656.72;;;4.24;nan
40850;BME280;26571;41.610;25.380;2023-01-28T04:16:54;97625.19;;;4.18;nan
40850;BME280;26571;41.610;25.380;2023-01-28T04:19:20;97665.63;;;4.49;nan
40850;BME280;26571;41.610;25.380;2023-01-28T04:21:46;97658.47;;;4.51;nan
40850;BME280;26571;41.610;25.380;2023-01-28T04:24:13;97632.34;;;4.15;nan
40850;BME280;26571;41.610;25.380;2023-01-28T04:26:39;97668.06;;;4.33;nan
40850;BME280;26571;41.610;25.380;2023-01-28T04:29:05;97664.69;;;4.23;nan
40850;BME280;26571;41.610;25.380;2023-01-28T04:31:30;97667.19;;;4.14;nan
40850;BME280;26571;41.610;25.380;2023-01-28T04:33:56;97660.56;;;4.20;nan
40850;BME280;26571;41.610;25.380;2023-01-28T04:36:21;97672.38;;;4.14;nan
40850;BME280;26571;41.610;25.380;2023-01-28T04:38:47;97667.94;;;3.97;nan
40850;BME280;26571;41.610;25.380;2023-01-28T04:41:12;97672.78;;;3.82;nan
40850;BME280;26571;41.610;25.380;2023-01-28T04:43:38;97671.19;;;3.72;nan
40850;BME280;26571;41.610;25.380;2023-01-28T04:46:03;97673.19;;;3.78;nan
40850;BME280;26571;41.610;25.380;2023-01-28T04:48:29;97679.28;;;3.69;nan
40850;BME280;26571;41.610;25.380;2023-01-28T04:50:55;97626.63;;;3.37;nan
40850;BME280;26571;41.610;25.380;2023-01-28T04:53:21;97697.69;;;3.95;nan
40850;BME280;26571;41.610;25.380;2023-01-28T04:55:46;97683.38;;;4.08;nan
40850;BME280;26571;41.610;25.380;2023-01-28T04:58:12;97683.38;;;4.36;nan
40850;BME280;26571;41.610;25.380;2023-01-28T05:00:37;97694.78;;;4.35;nan
40850;BME280;26571;41.610;25.380;2023-01-28T05:03:03;97689.59;;;4.25;nan
40850;BME280;26571;41.610;25.380;2023-01-28T05:05:28;97696.38;;;4.18;nan
40850;BME280;26571;41.610;25.380;2023-01-28T05:07:57;97703.25;;;4.37;nan
40850;BME280;26571;41.610;25.380;2023-01-28T05:10:24;97707.00;;;4.52;nan
40850;BME280;26571;41.610;25.380;2023-01-28T05:12:50;97712.47;;;4.59;nan
40850;BME280;26571;41.610;25.380;2023-01-28T05:15:16;97712.22;;;4.52;nan
40850;BME280;26571;41.610;25.380;2023-01-28T05:17:42;97713.91;;;4.71;nan
40850;BME280;26571;41.610;25.380;2023-01-28T05:20:09;97710.56;;;4.79;nan
40850;BME280;26571;41.610;25.380;2023-01-28T05:22:35;97715.84;;;4.69;nan
40850;BME280;26571;41.610;25.380;2023-01-28T05:25:00;97709.44;;;4.63;nan
40850;BME280;26571;41.610;25.380;2023-01-28T05:27:28;97732.97;;;4.72;nan
40850;BME280;26571;41.610;25.380;2023-01-28T05:29:53;97714.34;;;4.66;nan
40850;BME280;26571;41.610;25.380;2023-01-28T05:32:19;97717.84;;;4.75;nan
40850;BME280;26571;41.610;25.380;2023-01-28T05:34:44;97722.13;;;4.94;nan
40850;BME280;26571;41.610;25.380;2023-01-28T05:37:09;97726.22;;;5.14;nan
40850;BME280;26571;41.610;25.380;2023-01-28T05:39:35;97727.53;;;5.36;nan
40850;BME280;26571;41.610;25.380;2023-01-28T05:42:00;97735.38;;;5.54;nan
40850;BME280;26571;41.610;25.380;2023-01-28T05:44:26;97736.38;;;5.61;nan
40850;BME280;26571;41.610;25.380;2023-01-28T05:46:51;97730.31;;;5.53;nan
40850;BME280;26571;41.610;25.380;2023-01-28T05:49:17;97736.47;;;5.52;nan
40850;BME280;26571;41.610;25.380;2023-01-28T05:51:42;97725.47;;;5.40;nan
40850;BME280;26571;41.610;25.380;2023-01-28T05:54:08;97751.22;;;5.61;nan
40850;BME280;26571;41.610;25.380;2023-01-28T05:56:34;97745.97;;;5.53;nan
40850;BME280;26571;41.610;25.380;2023-01-28T05:59:03;97753.38;;;5.65;nan
40850;BME280;26571;41.610;25.380;2023-01-28T06:01:29;97711.38;;;5.33;nan
40850;BME280;26571;41.610;25.380;2023-01-28T06:03:55;97750.72;;;5.57;nan
40850;BME280;26571;41.610;25.380;2023-01-28T06:06:20;97756.38;;;5.70;nan
40850;BME280;26571;41.610;25.380;2023-01-28T06:08:46;97760.88;;;5.86;nan
40850;BME280;26571;41.610;25.380;2023-01-28T06:11:11;97774.31;;;5.91;nan
40850;BME280;26571;41.610;25.380;2023-01-28T06:13:37;97763.78;;;6.01;nan
40850;BME280;26571;41.610;25.380;2023-01-28T06:16:03;97767.38;;;6.00;nan
40850;BME280;26571;41.610;25.380;2023-01-28T06:18:28;97780.44;;;6.00;nan
40850;BME280;26571;41.610;25.380;2023-01-28T06:20:53;97783.13;;;5.90;nan
40850;BME280;26571;41.610;25.380;2023-01-28T06:23:19;97795.31;;;5.64;nan
40850;BME280;26571;41.610;25.380;2023-01-28T06:25:45;97792.78;;;5.72;nan
40850;BME280;26571;41.610;25.380;2023-01-28T06:28:10;97801.28;;;5.74;nan
40850;BME280;26571;41.610;25.380;2023-01-28T06:30:35;97800.00;;;5.78;nan
40850;BME280;26571;41.610;25.380;2023-01-28T06:33:01;97801.56;;;5.89;nan
40850;BME280;26571;41.610;25.380;2023-01-28T06:35:26;97806.53;;;5.92;nan
40850;BME280;26571;41.610;25.380;2023-01-28T06:37:52;97809.69;;;5.86;nan
40850;BME280;26571;41.610;25.380;2023-01-28T06:40:18;97778.56;;;5.49;nan
40850;BME280;26571;41.610;25.380;2023-01-28T06:42:44;97822.13;;;5.48;nan
40850;BME280;26571;41.610;25.380;2023-01-28T06:45:09;97818.09;;;5.54;nan
40850;BME280;26571;41.610;25.380;2023-01-28T06:47:37;97832.53;;;5.66;nan
40850;BME280;26571;41.610;25.380;2023-01-28T06:50:03;97831.28;;;5.52;nan
40850;BME280;26571;41.610;25.380;2023-01-28T06:52:28;97819.56;;;5.21;nan
40850;BME280;26571;41.610;25.380;2023-01-28T06:54:54;97842.75;;;5.24;nan
40850;BME280;26571;41.610;25.380;2023-01-28T06:57:19;97842.88;;;5.04;nan
40850;BME280;26571;41.610;25.380;2023-01-28T06:59:44;97844.91;;;4.83;nan
40850;BME280;26571;41.610;25.380;2023-01-28T07:02:10;97846.22;;;4.59;nan
40850;BME280;26571;41.610;25.380;2023-01-28T07:04:36;97849.63;;;4.70;nan
40850;BME280;26571;41.610;25.380;2023-01-28T07:07:02;97842.03;;;4.76;nan
40850;BME280;26571;41.610;25.380;2023-01-28T07:09:27;97846.22;;;4.87;nan
40850;BME280;26571;41.610;25.380;2023-01-28T07:11:53;97849.22;;;4.64;nan
40850;BME280;26571;41.610;25.380;2023-01-28T07:14:18;97821.25;;;4.20;nan
40850;BME280;26571;41.610;25.380;2023-01-28T07:16:43;97856.13;;;4.46;nan
40850;BME280;26571;41.610;25.380;2023-01-28T07:19:09;97850.28;;;4.34;nan
40850;BME280;26571;41.610;25.380;2023-01-28T07:21:34;97863.38;;;4.52;nan
40850;BME280;26571;41.610;25.380;2023-01-28T07:24:00;97864.47;;;4.59;nan
40850;BME280;26571;41.610;25.380;2023-01-28T07:26:25;97868.09;;;4.49;nan
40850;BME280;26571;41.610;25.380;2023-01-28T07:28:50;97865.84;;;4.63;nan
40850;BME280;26571;41.610;25.380;2023-01-28T07:31:16;97870.75;;;4.66;nan
40850;BME280;26571;41.610;25.380;2023-01-28T07:33:41;97863.91;;;4.65;nan
40850;BME280;26571;41.610;25.380;2023-01-28T07:36:07;97832.66;;;4.56;nan
40850;BME280;26571;41.610;25.380;2023-01-28T07:38:32;97886.19;;;4.87;nan
40850;BME280;26571;41.610;25.380;2023-01-28T07:40:58;97884.84;;;5.11;nan
40850;BME280;26571;41.610;25.380;2023-01-28T07:43:23;97848.66;;;4.98;nan
40850;BME280;26571;41.610;25.380;2023-01-28T07:45:49;97895.50;;;5.45;nan
40850;BME280;26571;41.610;25.380;2023-01-28T07:48:15;97898.63;;;5.49;nan
40850;BME280;26571;41.610;25.380;2023-01-28T07:50:41;97899.84;;;5.27;nan
40850;BME280;26571;41.610;25.380;2023-01-28T07:53:10;97896.63;;;5.15;nan
40850;BME280;26571;41.610;25.380;2023-01-28T07:55:36;97905.75;;;5.01;nan
40850;BME280;26571;41.610;25.380;2023-01-28T07:58:03;97914.34;;;5.11;nan
40850;BME280;26571;41.610;25.380;2023-01-28T08:00:29;97905.47;;;5.04;nan
40850;BME280;26571;41.610;25.380;2023-01-28T08:02:58;97911.53;;;4.95;nan
40850;BME280;26571;41.610;25.380;2023-01-28T08:05:25;97921.97;;;4.95;nan
40850;BME280;26571;41.610;25.380;2023-01-28T08:07:51;97880.53;;;4.92;nan
40850;BME280;26571;41.610;25.380;2023-01-28T08:10:17;97917.78;;;5.39;nan
40850;BME280;26571;41.610;25.380;2023-01-28T08:12:53;97918.66;;;5.58;nan
40850;BME280;26571;41.610;25.380;2023-01-28T08:15:18;97926.38;;;5.50;nan
40850;BME280;26571;41.610;25.380;2023-01-28T08:17:44;97919.47;;;5.58;nan
40850;BME280;26571;41.610;25.380;2023-01-28T08:20:09;97929.31;;;5.92;nan
40850;BME280;26571;41.610;25.380;2023-01-28T08:22:35;97926.22;;;6.14;nan
40850;BME280;26571;41.610;25.380;2023-01-28T08:25:00;97925.59;;;6.20;nan
40850;BME280;26571;41.610;25.380;2023-01-28T08:27:26;97924.09;;;6.36;nan
40850;BME280;26571;41.610;25.380;2023-01-28T08:29:51;97931.31;;;5.98;nan
40850;BME280;26571;41.610;25.380;2023-01-28T08:32:17;97935.75;;;5.88;nan
40850;BME280;26571;41.610;25.380;2023-01-28T08:34:42;97936.53;;;5.98;nan
40850;BME280;26571;41.610;25.380;2023-01-28T08:37:07;97931.34;;;6.06;nan
40850;BME280;26571;41.610;25.380;2023-01-28T08:39:33;97946.38;;;6.22;nan
40850;BME280;26571;41.610;25.380;2023-01-28T08:41:58;97935.69;;;6.15;nan
40850;BME280;26571;41.610;25.380;2023-01-28T08:44:24;97933.75;;;6.00;nan
40850;BME280;26571;41.610;25.380;2023-01-28T08:46:49;97952.09;;;5.90;nan
40850;BME280;26571;41.610;25.380;2023-01-28T08:49:14;97949.28;;;6.19;nan
40850;BME280;26571;41.610;25.380;2023-01-28T08:51:40;97950.47;;;6.42;nan
40850;BME280;26571;41.610;25.380;2023-01-28T08:54:05;97945.63;;;6.30;nan
40850;BME280;26571;41.610;25.380;2023-01-28T08:56:30;97952.47;;;6.31;nan
40850;BME280;26571;41.610;25.380;2023-01-28T08:58:56;97947.13;;;6.14;nan
40850;BME280;26571;41.610;25.380;2023-01-28T09:01:21;97947.03;;;6.06;nan
40850;BME280;26571;41.610;25.380;2023-01-28T09:03:47;97944.38;;;5.70;nan
40850;BME280;26571;41.610;25.380;2023-01-28T09:06:12;97951.91;;;5.56;nan
40850;BME280;26571;41.610;25.380;2023-01-28T09:08:37;97948.56;;;5.63;nan
40850;BME280;26571;41.610;25.380;2023-01-28T09:11:03;97952.25;;;5.88;nan
40850;BME280;26571;41.610;25.380;2023-01-28T09:13:28;97944.81;;;5.93;nan
40850;BME280;26571;41.610;25.380;2023-01-28T09:15:54;97939.53;;;6.03;nan
40850;BME280;26571;41.610;25.380;2023-01-28T09:18:20;97945.53;;;6.21;nan
40850;BME280;26571;41.610;25.380;2023-01-28T09:20:46;97945.94;;;6.27;nan
40850;BME280;26571;41.610;25.380;2023-01-28T09:23:11;97946.97;;;6.34;nan
40850;BME280;26571;41.610;25.380;2023-01-28T09:25:37;97943.72;;;6.40;nan
40850;BME280;26571;41.610;25.380;2023-01-28T09:28:03;97941.72;;;6.34;nan
40850;BME280;26571;41.610;25.380;2023-01-28T09:30:29;97941.00;;;6.24;nan
40850;BME280;26571;41.610;25.380;2023-01-28T09:32:55;97937.69;;;6.39;nan
40850;BME280;26571;41.610;25.380;2023-01-28T09:35:22;97887.13;;;6.31;nan
40850;BME280;26571;41.610;25.380;2023-01-28T09:37:47;97943.72;;;6.58;nan
40850;BME280;26571;41.610;25.380;2023-01-28T09:40:29;97932.16;;;6.68;nan
40850;BME280;26571;41.610;25.380;2023-01-28T09:47:56;97940.47;;;6.90;nan
40850;BME280;26571;41.610;25.380;2023-01-28T09:50:35;97938.38;;;7.28;nan
40850;BME280;26571;41.610;25.380;2023-01-28T09:53:22;97946.09;;;7.37;nan
40850;BME280;26571;41.610;25.380;2023-01-28T09:56:00;97940.75;;;7.47;nan
40850;BME280;26571;41.610;25.380;2023-01-28T09:58:26;97935.84;;;7.52;nan
40850;BME280;26571;41.610;25.380;2023-01-28T10:12:09;97929.06;;;8.24;nan
40850;BME280;26571;41.610;25.380;2023-01-28T10:20:02;97919.53;;;8.80;nan
40850;BME280;26571;41.610;25.380;2023-01-28T10:22:34;97916.88;;;8.97;nan
40850;BME280;26571;41.610;25.380;2023-01-28T10:25:05;97922.06;;;9.13;nan
40850;BME280;26571;41.610;25.380;2023-01-28T10:27:34;97917.09;;;9.26;nan
40850;BME280;26571;41.610;25.380;2023-01-28T10:30:15;97914.25;;;9.36;nan
40850;BME280;26571;41.610;25.380;2023-01-28T10:33:17;97922.97;;;9.37;nan
40850;BME280;26571;41.610;25.380;2023-01-28T10:35:44;97919.38;;;9.29;nan
40850;BME280;26571;41.610;25.380;2023-01-28T10:38:14;97888.28;;;9.10;nan
40850;BME280;26571;41.610;25.380;2023-01-28T10:40:41;97918.41;;;9.30;nan
40850;BME280;26571;41.610;25.380;2023-01-28T10:43:07;97929.53;;;9.32;nan
40850;BME280;26571;41.610;25.380;2023-01-28T10:48:22;97927.81;;;9.09;nan
40850;BME280;26571;41.610;25.380;2023-01-28T10:50:50;97930.44;;;9.17;nan
40850;BME280;26571;41.610;25.380;2023-01-28T10:53:16;97922.63;;;9.00;nan
40850;BME280;26571;41.610;25.380;2023-01-28T10:58:22;97934.56;;;9.11;nan
40850;BME280;26571;41.610;25.380;2023-01-28T11:01:05;97929.44;;;9.10;nan
40850;BME280;26571;41.610;25.380;2023-01-28T11:03:31;97924.81;;;9.20;nan
40850;BME280;26571;41.610;25.380;2023-01-28T11:06:00;97924.00;;;9.19;nan
40850;BME280;26571;41.610;25.380;2023-01-28T11:08:27;97928.31;;;9.12;nan
40850;BME280;26571;41.610;25.380;2023-01-28T11:10:54;97920.41;;;9.20;nan
40850;BME280;26571;41.610;25.380;2023-01-28T11:13:22;97928.25;;;9.28;nan
40850;BME280;26571;41.610;25.380;2023-01-28T11:16:13;97934.47;;;9.36;nan
40850;BME280;26571;41.610;25.380;2023-01-28T11:21:34;97929.53;;;9.41;nan
40850;BME280;26571;41.610;25.380;2023-01-28T11:24:02;97919.38;;;9.29;nan
40850;BME280;26571;41.610;25.380;2023-01-28T11:26:32;97936.06;;;9.45;nan
40850;BME280;26571;41.610;25.380;2023-01-28T11:28:59;97931.13;;;9.50;nan
40850;BME280;26571;41.610;25.380;2023-01-28T11:31:25;97934.47;;;9.36;nan
40850;BME280;26571;41.610;25.380;2023-01-28T11:33:55;97932.78;;;9.43;nan
40850;BME280;26571;41.610;25.380;2023-01-28T11:36:27;97945.06;;;9.50;nan
40850;BME280;26571;41.610;25.380;2023-01-28T11:38:55;97936.69;;;9.55;nan
40850;BME280;26571;41.610;25.380;2023-01-28T11:41:35;97943.97;;;9.45;nan
40850;BME280;26571;41.610;25.380;2023-01-28T11:44:17;97936.19;;;9.51;nan
40850;BME280;26571;41.610;25.380;2023-01-28T12:00:27;97941.06;;;9.23;nan
40850;BME280;26571;41.610;25.380;2023-01-28T12:05:54;97946.94;;;9.33;nan
40850;BME280;26571;41.610;25.380;2023-01-28T12:08:28;97948.91;;;9.31;nan
40850;BME280;26571;41.610;25.380;2023-01-28T12:13:47;97944.16;;;9.35;nan
40850;BME280;26571;41.610;25.380;2023-01-28T12:16:48;97949.88;;;9.39;nan
40850;BME280;26571;41.610;25.380;2023-01-28T12:19:51;97945.94;;;9.35;nan
40850;BME280;26571;41.610;25.380;2023-01-28T12:31:03;97941.22;;;9.30;nan
40850;BME280;26571;41.610;25.380;2023-01-28T12:40:02;97961.03;;;9.41;nan
40850;BME280;26571;41.610;25.380;2023-01-28T12:42:36;97956.13;;;9.38;nan
40850;BME280;26571;41.610;25.380;2023-01-28T12:45:27;97962.06;;;9.23;nan
40850;BME280;26571;41.610;25.380;2023-01-28T12:48:08;97959.44;;;9.31;nan
40850;BME280;26571;41.610;25.380;2023-01-28T12:50:40;97963.88;;;9.31;nan
40850;BME280;26571;41.610;25.380;2023-01-28T12:55:43;97952.56;;;9.14;nan
40850;BME280;26571;41.610;25.380;2023-01-28T12:58:46;97968.31;;;9.30;nan
40850;BME280;26571;41.610;25.380;2023-01-28T13:01:13;97963.06;;;9.22;nan
40850;BME280;26571;41.610;25.380;2023-01-28T13:06:42;97968.97;;;9.24;nan
40850;BME280;26571;41.610;25.380;2023-01-28T13:09:16;97986.03;;;9.28;nan
40850;BME280;26571;41.610;25.380;2023-01-28T13:11:44;97986.38;;;9.25;nan
40850;BME280;26571;41.610;25.380;2023-01-28T13:14:11;97989.31;;;9.30;nan
40850;BME280;26571;41.610;25.380;2023-01-28T13:16:37;97988.81;;;9.27;nan
40850;BME280;26571;41.610;25.380;2023-01-28T13:21:35;97994.44;;;9.16;nan
40850;BME280;26571;41.610;25.380;2023-01-28T13:26:29;98000.88;;;9.05;nan
40850;BME280;26571;41.610;25.380;2023-01-28T13:31:52;98009.72;;;9.04;nan
40850;BME280;26571;41.610;25.380;2023-01-28T13:34:55;98021.19;;;9.11;nan
40850;BME280;26571;41.610;25.380;2023-01-28T13:40:03;98017.59;;;9.12;nan
40850;BME280;26571;41.610;25.380;2023-01-28T13:42:31;98022.16;;;9.18;nan
40850;BME280;26571;41.610;25.380;2023-01-28T13:45:18;98025.66;;;9.02;nan
40850;BME280;26571;41.610;25.380;2023-01-28T13:47:46;98023.00;;;9.02;nan
40850;BME280;26571;41.610;25.380;2023-01-28T13:50:20;98027.13;;;9.05;nan
40850;BME280;26571;41.610;25.380;2023-01-28T13:53:01;98035.81;;;9.05;nan
40850;BME280;26571;41.610;25.380;2023-01-28T13:55:35;97913.03;;;8.36;nan
40850;BME280;26571;41.610;25.380;2023-01-28T14:00:50;98034.84;;;9.06;nan
40850;BME280;26571;41.610;25.380;2023-01-28T14:06:52;98036.97;;;8.95;nan
40850;BME280;26571;41.610;25.380;2023-01-28T14:17:50;98044.84;;;8.95;nan
40850;BME280;26571;41.610;25.380;2023-01-28T14:20:27;98046.16;;;8.99;nan
40850;BME280;26571;41.610;25.380;2023-01-28T14:23:00;98047.16;;;9.06;nan
40850;BME280;26571;41.610;25.380;2023-01-28T14:25:35;98025.66;;;8.78;nan
40850;BME280;26571;41.610;25.380;2023-01-28T14:28:03;98057.97;;;8.95;nan
40850;BME280;26571;41.610;25.380;2023-01-28T14:30:44;98052.56;;;8.96;nan
40850;BME280;26571;41.610;25.380;2023-01-28T14:33:13;98054.19;;;9.05;nan
40850;BME280;26571;41.610;25.380;2023-01-28T14:35:43;98058.81;;;8.95;nan
40850;BME280;26571;41.610;25.380;2023-01-28T14:38:14;98058.94;;;8.94;nan
40850;BME280;26571;41.610;25.380;2023-01-28T14:40:41;98057.81;;;8.88;nan
40850;BME280;26571;41.610;25.380;2023-01-28T14:43:11;98061.41;;;8.79;nan
40850;BME280;26571;41.610;25.380;2023-01-28T14:48:19;98068.97;;;8.82;nan
40850;BME280;26571;41.610;25.380;2023-01-28T14:59:16;98084.72;;;8.82;nan
40850;BME280;26571;41.610;25.380;2023-01-28T15:01:47;98088.16;;;8.83;nan
40850;BME280;26571;41.610;25.380;2023-01-28T15:04:25;98085.22;;;8.86;nan
40850;BME280;26571;41.610;25.380;2023-01-28T15:06:51;98073.03;;;8.60;nan
40850;BME280;26571;41.610;25.380;2023-01-28T15:09:16;98089.78;;;8.59;nan
40850;BME280;26571;41.610;25.380;2023-01-28T15:11:44;98092.56;;;8.74;nan
40850;BME280;26571;41.610;25.380;2023-01-28T15:14:19;98094.06;;;8.68;nan
40850;BME280;26571;41.610;25.380;2023-01-28T15:16:48;98096.50;;;8.70;nan
40850;BME280;26571;41.610;25.380;2023-01-28T15:19:13;98103.56;;;8.77;nan
40850;BME280;26571;41.610;25.380;2023-01-28T15:21:43;98105.88;;;8.72;nan
40850;BME280;26571;41.610;25.380;2023-01-28T15:24:12;98098.66;;;8.74;nan
40850;BME280;26571;41.610;25.380;2023-01-28T15:26:38;98122.25;;;8.74;nan
40850;BME280;26571;41.610;25.380;2023-01-28T15:29:04;98114.06;;;8.61;nan
40850;BME280;26571;41.610;25.380;2023-01-28T15:31:34;98112.41;;;8.68;nan
40850;BME280;26571;41.610;25.380;2023-01-28T15:34:11;98114.38;;;8.58;nan
40850;BME280;26571;41.610;25.380;2023-01-28T15:36:37;98111.75;;;8.58;nan
40850;BME280;26571;41.610;25.380;2023-01-28T15:39:03;98109.78;;;8.60;nan
40850;BME280;26571;41.610;25.380;2023-01-28T15:41:33;98111.28;;;8.63;nan